Time;durP1;ratioP1;P1;durP2;ratioP2;P2;SDS_P1;SDS_P2;PMS_P1;PMS_P2;Temp;Humidity;BMP_temperature;BMP_pressure;BME280_temperature;BME280_humidity;BME280_pressure;Samples;Min_cycle;Max_cycle;Signal;HPM_P1;HPM_P2
2022/12/05 00:00:33;;;;;;;20.70;11.03;;;5.50;99.90;;;;;;5050620;28;20559;-60
2022/12/05 00:03:04;;;;;;;25.00;11.20;;;5.70;99.90;;;;;;5050364;28;20170;-59
2022/12/05 00:05:29;;;;;;;20.17;11.13;;;5.70;99.90;;;;;;5050415;28;20213;-60
2022/12/05 00:07:55;;;;;;;20.50;10.33;;;5.50;99.90;;;;;;5049862;28;20648;-60
2022/12/05 00:10:21;;;;;;;20.33;11.73;;;5.60;99.90;;;;;;5050311;28;20181;-60
2022/12/05 00:12:46;;;;;;;24.43;12.03;;;6.40;99.90;;;;;;5050495;28;20640;-60
2022/12/05 00:15:12;;;;;;;21.43;11.23;;;5.50;99.90;;;;;;5032646;28;20173;-60
2022/12/05 00:17:39;;;;;;;22.43;11.63;;;5.70;99.90;;;;;;5043505;28;20216;-60
2022/12/05 00:20:06;;;;;;;27.97;12.77;;;5.60;99.90;;;;;;5049941;28;20185;-60
2022/12/05 00:22:34;;;;;;;24.53;12.53;;;5.10;99.90;;;;;;5050159;28;20276;-60
2022/12/05 00:25:00;;;;;;;22.67;11.70;;;5.60;99.90;;;;;;5038269;28;20217;-60
2022/12/05 00:27:26;;;;;;;25.43;12.23;;;5.80;99.90;;;;;;5048093;28;20264;-60
2022/12/05 00:29:51;;;;;;;26.03;13.00;;;5.80;99.90;;;;;;5042851;28;20651;-60
2022/12/05 00:32:17;;;;;;;22.63;12.47;;;5.60;99.90;;;;;;5051814;28;20291;-60
2022/12/05 00:34:42;;;;;;;24.40;12.93;;;5.50;99.90;;;;;;5050460;28;20288;-60
2022/12/05 00:37:08;;;;;;;22.20;12.07;;;5.60;99.90;;;;;;5046949;28;20170;-60
2022/12/05 00:39:34;;;;;;;22.63;12.60;;;5.70;99.90;;;;;;5038283;28;20173;-59
2022/12/05 00:41:59;;;;;;;24.33;12.63;;;5.70;99.90;;;;;;5047793;28;20197;-59
2022/12/05 00:44:25;;;;;;;24.60;13.20;;;5.50;99.90;;;;;;5052986;28;20177;-59
2022/12/05 00:46:50;;;;;;;22.40;11.50;;;5.00;99.90;;;;;;5052986;28;20185;-59
2022/12/05 00:49:17;;;;;;;20.63;11.70;;;5.40;99.90;;;;;;5053599;28;20193;-59
2022/12/05 00:51:43;;;;;;;21.77;10.90;;;6.30;99.90;;;;;;5053687;28;20181;-59
2022/12/05 00:54:12;;;;;;;22.37;11.63;;;5.50;99.90;;;;;;5042141;28;20170;-59
2022/12/05 00:56:38;;;;;;;25.03;13.27;;;5.30;99.90;;;;;;5033791;28;20253;-60
2022/12/05 00:59:05;;;;;;;24.73;12.87;;;5.10;99.90;;;;;;5033752;28;20690;-59
2022/12/05 01:01:33;;;;;;;23.73;12.43;;;5.30;99.90;;;;;;5033617;28;20177;-59
2022/12/05 01:04:04;;;;;;;22.97;12.27;;;5.30;99.90;;;;;;5033601;28;20260;-59
2022/12/05 01:06:30;;;;;;;23.30;12.13;;;5.20;99.90;;;;;;5033477;28;20209;-59
2022/12/05 01:08:57;;;;;;;23.17;12.80;;;5.60;99.90;;;;;;5048292;28;20169;-59
2022/12/05 01:11:24;;;;;;;21.77;11.77;;;5.40;99.90;;;;;;5052969;28;20181;-59
2022/12/05 01:13:50;;;;;;;23.83;12.87;;;5.50;99.90;;;;;;5053354;28;20695;-59
2022/12/05 01:16:19;;;;;;;23.20;12.47;;;5.50;99.90;;;;;;5052805;28;20689;-59
2022/12/05 01:18:45;;;;;;;24.30;13.00;;;;;;;;;;5053171;28;20189;-59
2022/12/05 01:21:11;;;;;;;24.30;12.77;;;;;;;;;;5053020;28;20234;-59
2022/12/05 01:23:37;;;;;;;22.03;11.87;;;5.30;99.90;;;;;;5034545;28;20181;-59
2022/12/05 01:26:09;;;;;;;20.60;12.47;;;5.60;99.90;;;;;;5033991;28;20250;-59
2022/12/05 01:28:36;;;;;;;22.53;11.57;;;;;;;;;;5052829;28;20192;-59
2022/12/05 01:31:14;;;;;;;25.80;11.77;;;5.30;99.90;;;;;;5052309;28;20185;-59
2022/12/05 01:33:40;;;;;;;21.77;12.07;;;5.40;99.90;;;;;;5041230;28;20221;-59
2022/12/05 01:36:10;;;;;;;21.83;11.57;;;5.40;99.90;;;;;;5051606;28;20243;-59
2022/12/05 01:38:37;;;;;;;20.70;10.53;;;5.40;99.90;;;;;;5042743;28;20620;-59
2022/12/05 01:41:04;;;;;;;20.00;11.33;;;5.40;99.90;;;;;;5050898;28;20200;-59
2022/12/05 01:43:30;;;;;;;22.03;11.80;;;5.20;99.90;;;;;;5034516;28;20265;-60
2022/12/05 01:45:56;;;;;;;21.87;12.07;;;5.40;99.90;;;;;;5031829;28;20747;-59
2022/12/05 01:48:29;;;;;;;23.30;11.97;;;5.50;99.90;;;;;;5032400;28;20181;-59
2022/12/05 01:50:56;;;;;;;25.33;12.87;;;5.40;99.90;;;;;;5032032;28;20641;-59
2022/12/05 01:53:22;;;;;;;23.07;11.80;;;5.50;99.90;;;;;;5029534;28;20202;-59
2022/12/05 01:55:49;;;;;;;21.57;11.60;;;5.70;99.90;;;;;;5050208;28;20646;-59
2022/12/05 01:58:16;;;;;;;21.17;11.53;;;5.40;99.90;;;;;;5052371;28;20632;-60
2022/12/05 02:00:42;;;;;;;23.43;12.77;;;5.50;99.90;;;;;;5052226;28;20173;-59
2022/12/05 02:03:13;;;;;;;21.87;12.30;;;5.50;99.90;;;;;;5052306;28;20188;-58
2022/12/05 02:05:40;;;;;;;22.93;12.30;;;5.50;99.90;;;;;;5052185;28;20251;-59
2022/12/05 02:08:07;;;;;;;21.57;12.10;;;5.70;99.90;;;;;;5052335;28;20533;-60
2022/12/05 02:10:45;;;;;;;24.33;12.93;;;5.70;99.90;;;;;;5052159;28;20181;-60
2022/12/05 02:13:31;;;;;;;24.40;12.97;;;5.40;99.90;;;;;;5051999;28;20264;-60
2022/12/05 02:15:57;;;;;;;23.53;12.67;;;5.60;99.90;;;;;;5051983;28;20201;-60
2022/12/05 02:18:28;;;;;;;25.00;13.27;;;5.50;99.90;;;;;;5052130;28;20173;-60
2022/12/05 02:21:00;;;;;;;26.60;13.53;;;5.60;99.90;;;;;;5051839;28;20624;-60
2022/12/05 02:23:53;;;;;;;27.20;12.17;;;5.40;99.90;;;;;;5051795;28;20181;-60
2022/12/05 02:26:37;;;;;;;21.10;12.03;;;5.60;99.90;;;;;;5049900;28;20708;-59
2022/12/05 02:29:40;;;;;;;21.20;11.03;;;5.40;99.90;;;;;;5051343;28;20256;-59
2022/12/05 02:32:27;;;;;;;21.03;11.87;;;5.30;99.90;;;;;;5051235;28;20312;-60
2022/12/05 02:35:25;;;;;;;20.17;12.20;;;5.20;99.90;;;;;;5049963;28;20219;-59
2022/12/05 02:38:09;;;;;;;24.00;12.07;;;5.40;99.90;;;;;;5045713;28;20177;-60
2022/12/05 02:40:49;;;;;;;20.17;11.20;;;5.60;99.90;;;;;;5048298;28;20635;-60
2022/12/05 02:43:41;;;;;;;23.77;10.87;;;5.40;99.90;;;;;;5046477;28;20162;-59
2022/12/05 02:46:11;;;;;;;22.93;11.03;;;5.30;99.90;;;;;;5030820;28;20564;-60
2022/12/05 02:48:39;;;;;;;20.47;11.73;;;5.40;99.90;;;;;;5044518;28;20315;-60
2022/12/05 02:51:08;;;;;;;20.80;11.63;;;5.40;99.90;;;;;;5051457;28;20635;-60
2022/12/05 02:53:35;;;;;;;22.73;12.40;;;5.40;99.90;;;;;;5051232;28;20184;-59
2022/12/05 02:56:01;;;;;;;21.53;11.63;;;;;;;;;;5041295;28;20184;-60
2022/12/05 02:58:33;;;;;;;25.03;13.20;;;5.40;99.90;;;;;;5031128;28;20177;-59
2022/12/05 03:00:59;;;;;;;23.47;12.07;;;5.40;99.90;;;;;;5031058;28;20170;-60
2022/12/05 03:03:25;;;;;;;24.23;13.47;;;5.20;99.90;;;;;;5027065;28;20197;-59
2022/12/05 03:06:01;;;;;;;22.53;12.27;;;5.40;99.90;;;;;;5030691;28;20790;-59
2022/12/05 03:08:38;;;;;;;24.40;13.00;;;5.30;99.90;;;;;;5030608;28;20196;-59
2022/12/05 03:11:05;;;;;;;26.27;13.63;;;2.80;99.90;;;;;;5041392;28;20227;-59
2022/12/05 03:13:54;;;;;;;24.37;14.00;;;5.50;99.90;;;;;;5050706;28;20540;-59
2022/12/05 03:16:30;;;;;;;24.30;13.60;;;5.40;99.90;;;;;;5050802;28;20267;-59
2022/12/05 03:19:00;;;;;;;26.17;13.10;;;5.20;99.90;;;;;;5050937;28;20204;-59
2022/12/05 03:21:28;;;;;;;25.40;13.57;;;5.40;99.90;;;;;;5050987;28;20185;-59
2022/12/05 03:24:00;;;;;;;25.67;13.20;;;5.60;99.90;;;;;;5050103;28;20600;-59
2022/12/05 03:26:56;;;;;;;25.60;14.23;;;5.40;99.90;;;;;;5050462;28;20212;-59
2022/12/05 03:29:25;;;;;;;24.90;13.23;;;5.60;99.90;;;;;;5049793;28;20600;-59
2022/12/05 03:32:23;;;;;;;24.33;14.00;;;5.50;99.90;;;;;;5049302;28;20298;-59
2022/12/05 03:35:04;;;;;;;26.50;13.63;;;5.50;99.90;;;;;;5040901;28;20197;-59
2022/12/05 03:38:00;;;;;;;27.53;13.87;;;5.60;99.90;;;;;;5045540;28;20230;-59
2022/12/05 03:40:34;;;;;;;24.80;13.93;;;5.50;99.90;;;;;;5026684;28;20223;-60
2022/12/05 03:43:09;;;;;;;23.37;13.57;;;5.50;99.90;;;;;;5041723;28;20181;-59
2022/12/05 03:45:45;;;;;;;26.67;15.27;;;5.80;99.90;;;;;;5050581;28;20208;-59
2022/12/05 03:48:26;;;;;;;28.80;13.93;;;5.50;99.90;;;;;;5050251;28;20177;-59
2022/12/05 03:50:53;;;;;;;30.77;14.73;;;5.30;99.90;;;;;;5050519;28;20342;-59
2022/12/05 03:53:28;;;;;;;28.67;14.03;;;5.60;99.90;;;;;;5048936;28;20169;-59
2022/12/05 03:56:01;;;;;;;29.50;15.37;;;5.90;99.90;;;;;;5047581;28;20204;-59
2022/12/05 03:58:36;;;;;;;29.50;14.90;;;5.60;99.90;;;;;;5024273;28;20193;-59
2022/12/05 04:01:05;;;;;;;28.70;14.23;;;5.70;99.90;;;;;;5047993;28;20402;-60
2022/12/05 04:03:44;;;;;;;28.43;14.93;;;5.80;99.90;;;;;;5033567;28;20242;-60
2022/12/05 04:06:20;;;;;;;33.17;14.70;;;5.90;99.90;;;;;;5054319;28;20679;-59
2022/12/05 04:09:04;;;;;;;29.53;16.00;;;5.50;99.90;;;;;;5054149;28;20315;-59
2022/12/05 04:11:34;;;;;;;31.47;15.90;;;5.50;99.90;;;;;;5054143;28;20188;-59
2022/12/05 04:14:13;;;;;;;28.93;15.23;;;5.60;99.90;;;;;;5054014;28;20220;-59
2022/12/05 04:17:02;;;;;;;29.93;14.80;;;5.70;99.90;;;;;;5054116;28;20268;-59
2022/12/05 04:22:38;;;;;;;31.63;16.87;;;5.40;99.90;;;;;;5054046;28;20239;-59
2022/12/05 04:28:10;;;;;;;31.63;16.43;;;5.50;99.90;;;;;;5041096;28;20205;-60
2022/12/05 04:30:45;;;;;;;35.17;15.57;;;5.60;99.90;;;;;;5050726;28;20276;-59
2022/12/05 04:33:32;;;;;;;38.87;16.27;;;5.40;99.90;;;;;;5053172;28;20212;-59
2022/12/05 04:36:14;;;;;;;32.93;15.77;;;6.00;99.90;;;;;;5046569;28;20182;-59
2022/12/05 04:38:53;;;;;;;31.00;16.23;;;5.40;99.90;;;;;;5051601;28;20177;-59
2022/12/05 04:41:29;;;;;;;29.70;15.40;;;5.60;99.90;;;;;;5047554;28;20643;-59
2022/12/05 04:43:58;;;;;;;33.43;15.40;;;5.50;99.90;;;;;;5034200;28;20174;-60
2022/12/05 04:46:24;;;;;;;29.30;16.07;;;5.90;99.90;;;;;;5033927;28;20296;-60
2022/12/05 04:48:54;;;;;;;31.53;16.43;;;5.50;99.90;;;;;;5033969;28;20702;-60
2022/12/05 04:51:24;;;;;;;31.83;15.50;;;5.70;99.90;;;;;;5033799;28;20178;-60
2022/12/05 04:53:55;;;;;;;35.13;15.93;;;5.60;99.90;;;;;;5042702;28;20647;-60
2022/12/05 04:56:26;;;;;;;36.00;16.03;;;5.50;99.90;;;;;;5051619;28;20188;-60
2022/12/05 04:58:52;;;;;;;33.70;16.00;;;;;;;;;;5053715;28;20698;-60
2022/12/05 05:01:32;;;;;;;35.37;16.53;;;5.40;99.90;;;;;;5051833;28;20173;-60
2022/12/05 05:04:08;;;;;;;29.40;15.33;;;5.60;99.90;;;;;;5052326;28;20708;-60
2022/12/05 05:06:37;;;;;;;30.00;14.80;;;5.50;99.90;;;;;;5052647;28;20251;-60
2022/12/05 05:09:03;;;;;;;31.23;15.83;;;5.70;99.90;;;;;;5051716;28;20177;-60
2022/12/05 05:11:32;;;;;;;30.73;15.57;;;5.60;99.90;;;;;;5052915;28;20644;-60
2022/12/05 05:13:58;;;;;;;28.60;15.50;;;5.70;99.90;;;;;;5053027;28;20657;-60
2022/12/05 05:16:25;;;;;;;32.60;15.83;;;5.60;99.90;;;;;;5052321;28;20173;-60
2022/12/05 05:18:51;;;;;;;31.73;15.20;;;5.60;99.90;;;;;;5052299;28;20172;-60
2022/12/05 05:21:31;;;;;;;30.20;15.13;;;5.70;99.90;;;;;;5052865;28;20632;-60
2022/12/05 05:23:58;;;;;;;32.60;15.80;;;6.10;99.90;;;;;;5053133;28;20173;-60
2022/12/05 05:26:25;;;;;;;29.00;15.20;;;5.70;99.90;;;;;;5052302;28;20264;-60
2022/12/05 05:28:51;;;;;;;40.87;16.83;;;5.80;99.90;;;;;;5052643;28;20181;-60
2022/12/05 05:31:17;;;;;;;30.63;16.10;;;5.80;99.90;;;;;;5049030;28;20178;-60
2022/12/05 05:33:43;;;;;;;31.13;15.90;;;5.60;99.90;;;;;;5032997;28;20249;-60
2022/12/05 05:36:12;;;;;;;34.23;16.73;;;5.40;99.90;;;;;;5045632;28;20664;-59
2022/12/05 05:38:40;;;;;;;34.00;15.27;;;6.40;99.90;;;;;;5043846;28;20177;-59
2022/12/05 05:41:10;;;;;;;29.40;16.00;;;5.60;99.90;;;;;;5041563;28;20189;-59
2022/12/05 05:43:36;;;;;;;31.67;16.30;;;;;;;;;;5033065;28;20169;-59
2022/12/05 05:46:03;;;;;;;34.23;17.50;;;5.90;99.90;;;;;;5043153;28;20593;-60
2022/12/05 05:48:29;;;;;;;37.17;16.77;;;5.70;99.90;;;;;;5048887;28;20700;-59
2022/12/05 05:50:58;;;;;;;33.37;15.73;;;7.00;99.90;;;;;;5043662;28;20173;-59
2022/12/05 05:53:24;;;;;;;32.67;16.90;;;5.80;99.90;;;;;;5052506;28;20592;-60
2022/12/05 05:55:49;;;;;;;33.87;17.17;;;5.60;99.90;;;;;;5052222;28;20207;-60
2022/12/05 05:58:15;;;;;;;31.67;16.53;;;5.70;99.90;;;;;;5051365;28;20177;-59
2022/12/05 06:00:41;;;;;;;37.90;17.77;;;5.80;99.90;;;;;;5049572;28;20624;-60
2022/12/05 06:03:06;;;;;;;33.57;17.87;;;5.60;99.90;;;;;;5050216;28;20185;-60
2022/12/05 06:05:32;;;;;;;32.63;17.27;;;5.90;99.90;;;;;;5051300;28;20209;-60
2022/12/05 06:07:58;;;;;;;30.30;16.17;;;5.00;99.90;;;;;;5051076;28;20522;-59
2022/12/05 06:10:23;;;;;;;36.80;17.73;;;6.00;99.90;;;;;;5046179;28;20332;-59
2022/12/05 06:12:49;;;;;;;37.83;18.20;;;5.70;99.90;;;;;;5049035;28;20238;-58
2022/12/05 06:15:14;;;;;;;31.90;16.80;;;5.90;99.90;;;;;;5051455;28;20176;-59
2022/12/05 06:17:40;;;;;;;30.37;17.20;;;5.60;99.90;;;;;;5051669;28;20185;-59
2022/12/05 06:20:07;;;;;;;35.33;17.30;;;5.80;99.90;;;;;;5051629;28;20262;-59
2022/12/05 06:22:33;;;;;;;32.83;15.67;;;5.80;99.90;;;;;;5051720;28;20177;-59
2022/12/05 06:24:58;;;;;;;33.40;16.47;;;5.70;99.90;;;;;;5051000;28;20611;-59
2022/12/05 06:27:24;;;;;;;28.87;16.37;;;5.90;99.90;;;;;;5042779;28;20236;-59
2022/12/05 06:29:50;;;;;;;30.47;16.50;;;5.90;99.90;;;;;;5048827;28;20208;-58
2022/12/05 06:32:16;;;;;;;28.33;15.17;;;5.80;99.90;;;;;;5048182;28;20335;-59
2022/12/05 06:34:41;;;;;;;28.03;15.50;;;5.40;99.90;;;;;;5031862;28;20181;-59
2022/12/05 06:37:07;;;;;;;32.53;16.67;;;5.90;99.90;;;;;;5036500;28;20178;-59
2022/12/05 06:39:32;;;;;;;33.33;15.57;;;6.00;99.90;;;;;;5045158;28;20161;-59
2022/12/05 06:41:58;;;;;;;29.20;15.47;;;5.80;99.90;;;;;;5051527;28;20177;-59
2022/12/05 06:44:25;;;;;;;33.93;16.63;;;6.00;99.90;;;;;;5031796;28;20224;-59
2022/12/05 06:46:52;;;;;;;39.60;16.37;;;6.20;99.90;;;;;;5031655;28;20194;-59
2022/12/05 06:49:18;;;;;;;26.83;15.37;;;6.00;99.90;;;;;;5031642;28;20180;-59
2022/12/05 06:51:44;;;;;;;35.37;17.17;;;6.00;99.90;;;;;;5031656;28;20540;-59
2022/12/05 06:54:13;;;;;;;31.97;16.33;;;5.80;99.90;;;;;;5031511;28;20704;-59
2022/12/05 06:56:39;;;;;;;33.70;16.63;;;5.60;99.90;;;;;;5051655;28;20201;-59
2022/12/05 06:59:05;;;;;;;30.83;16.60;;;5.70;99.90;;;;;;5051406;28;20738;-59
2022/12/05 07:01:45;;;;;;;31.43;15.70;;;5.80;99.90;;;;;;5047615;28;20169;-59
2022/12/05 07:04:20;;;;;;;32.37;15.70;;;5.60;99.90;;;;;;5050438;28;20455;-59
2022/12/05 07:06:49;;;;;;;32.30;15.73;;;5.90;99.90;;;;;;5049240;28;20222;-58
2022/12/05 07:09:17;;;;;;;32.73;15.97;;;6.10;99.90;;;;;;5046626;28;20189;-58
2022/12/05 07:11:48;;;;;;;35.30;16.60;;;5.80;99.90;;;;;;5017792;28;20640;-58
2022/12/05 07:14:14;;;;;;;34.63;15.33;;;5.90;99.90;;;;;;5045869;28;20181;-58
2022/12/05 07:16:40;;;;;;;32.17;16.60;;;5.80;99.90;;;;;;5050960;28;20513;-58
2022/12/05 07:19:05;;;;;;;33.00;17.33;;;5.70;99.90;;;;;;5050822;28;20574;-59
2022/12/05 07:21:31;;;;;;;32.17;16.40;;;5.80;99.90;;;;;;5050810;28;20537;-58
2022/12/05 07:23:57;;;;;;;36.30;16.57;;;6.50;99.90;;;;;;5050245;28;20185;-58
2022/12/05 07:26:23;;;;;;;31.47;16.17;;;6.10;99.90;;;;;;5049253;28;20554;-58
2022/12/05 07:28:50;;;;;;;32.43;17.27;;;5.80;99.90;;;;;;5050643;28;20177;-58
2022/12/05 07:31:19;;;;;;;34.23;17.33;;;5.80;99.90;;;;;;5050624;28;20178;-58
2022/12/05 07:33:45;;;;;;;28.87;15.53;;;;;;;;;;5050750;28;20213;-58
2022/12/05 07:36:14;;;;;;;32.70;16.17;;;5.80;99.90;;;;;;5049152;28;20189;-59
2022/12/05 07:38:41;;;;;;;31.40;16.67;;;6.00;99.90;;;;;;5050935;28;20187;-58
2022/12/05 07:41:09;;;;;;;32.90;16.20;;;5.70;99.90;;;;;;5054129;28;20199;-59
2022/12/05 07:43:35;;;;;;;36.17;16.60;;;6.30;99.90;;;;;;5054603;28;20184;-59
2022/12/05 07:46:02;;;;;;;34.87;15.97;;;5.90;99.90;;;;;;5053971;28;20217;-59
2022/12/05 07:48:28;;;;;;;36.60;16.63;;;5.90;99.90;;;;;;5055149;28;20205;-59
2022/12/05 07:50:53;;;;;;;35.93;17.37;;;6.40;99.90;;;;;;5054504;28;20959;-58
2022/12/05 07:53:19;;;;;;;31.63;17.00;;;6.10;99.90;;;;;;5054426;28;20546;-58
2022/12/05 07:55:44;;;;;;;31.67;17.23;;;5.90;99.90;;;;;;5036453;28;20184;-58
2022/12/05 07:58:10;;;;;;;38.10;16.53;;;5.90;99.90;;;;;;5039749;28;20463;-59
2022/12/05 08:00:36;;;;;;;35.83;17.60;;;5.70;99.90;;;;;;5035182;28;20244;-58
2022/12/05 08:03:02;;;;;;;34.83;17.57;;;5.80;99.90;;;;;;5044504;28;20539;-58
2022/12/05 08:05:28;;;;;;;32.83;16.10;;;5.90;99.90;;;;;;5052196;28;20201;-58
2022/12/05 08:07:53;;;;;;;38.87;18.13;;;5.70;99.90;;;;;;5053133;28;20238;-58
2022/12/05 08:10:19;;;;;;;34.63;16.80;;;6.00;99.90;;;;;;5043008;28;20632;-58
2022/12/05 08:12:44;;;;;;;34.60;16.93;;;6.00;99.90;;;;;;5048777;28;20693;-58
2022/12/05 08:15:11;;;;;;;33.30;17.40;;;5.90;99.90;;;;;;5043221;28;20190;-58
2022/12/05 08:17:37;;;;;;;35.77;16.50;;;5.90;99.90;;;;;;5034152;28;20181;-58
2022/12/05 08:20:02;;;;;;;47.37;17.17;;;6.10;99.90;;;;;;5035529;28;20174;-59
2022/12/05 08:22:28;;;;;;;40.20;17.60;;;6.20;99.90;;;;;;5053425;28;20533;-59
2022/12/05 08:24:54;;;;;;;41.77;17.67;;;6.10;99.90;;;;;;5053925;28;20697;-60
2022/12/05 08:27:19;;;;;;;34.30;17.00;;;5.90;99.90;;;;;;5053313;28;20727;-59
2022/12/05 08:29:45;;;;;;;39.10;17.40;;;6.00;99.90;;;;;;5053571;28;20204;-59
2022/12/05 08:32:11;;;;;;;40.37;16.90;;;;;;;;;;5050994;28;20275;-60
2022/12/05 08:34:36;;;;;;;36.07;17.10;;;6.30;99.90;;;;;;5034149;28;20174;-60
2022/12/05 08:37:03;;;;;;;39.30;17.23;;;;;;;;;;5038867;28;20670;-60
2022/12/05 08:39:28;;;;;;;35.17;16.77;;;6.10;99.90;;;;;;5049758;28;20697;-59
2022/12/05 08:41:54;;;;;;;32.90;17.27;;;6.20;99.90;;;;;;5051210;28;20208;-60
2022/12/05 08:44:20;;;;;;;30.20;16.27;;;6.10;99.90;;;;;;5033872;28;20257;-60
2022/12/05 08:46:47;;;;;;;35.53;17.60;;;6.50;99.90;;;;;;5033751;28;20210;-58
2022/12/05 08:49:13;;;;;;;32.73;16.57;;;6.10;99.90;;;;;;5033339;28;20249;-60
2022/12/05 08:51:40;;;;;;;34.60;16.67;;;6.40;99.90;;;;;;5033473;28;20264;-60
2022/12/05 08:54:07;;;;;;;37.80;17.57;;;;;;;;;;5028836;28;20479;-60
2022/12/05 08:56:32;;;;;;;35.80;16.93;;;6.50;99.90;;;;;;5053560;28;20208;-59
2022/12/05 08:58:59;;;;;;;35.43;16.47;;;;;;;;;;5053470;28;20165;-59
2022/12/05 09:01:29;;;;;;;34.30;16.97;;;6.20;99.90;;;;;;5053518;28;20612;-59
2022/12/05 09:03:55;;;;;;;39.43;17.00;;;;;;;;;;5053613;28;20173;-59
2022/12/05 09:06:23;;;;;;;33.70;15.57;;;6.40;99.90;;;;;;5052805;28;20694;-59
2022/12/05 09:08:53;;;;;;;36.60;16.23;;;6.50;99.90;;;;;;5053832;28;20240;-59
2022/12/05 09:11:22;;;;;;;35.60;17.07;;;6.50;99.90;;;;;;5052762;28;20177;-59
2022/12/05 09:13:49;;;;;;;31.90;16.10;;;6.50;99.90;;;;;;5052646;28;20188;-59
2022/12/05 09:16:20;;;;;;;29.53;15.70;;;6.50;99.90;;;;;;5051127;28;20259;-59
2022/12/05 09:18:47;;;;;;;34.63;18.63;;;6.50;99.90;;;;;;5052977;28;20184;-59
2022/12/05 09:21:16;;;;;;;28.80;15.87;;;6.40;99.90;;;;;;5053113;28;20188;-59
2022/12/05 09:23:42;;;;;;;27.70;15.43;;;6.60;99.90;;;;;;5051745;28;20192;-59
2022/12/05 09:26:14;;;;;;;30.53;15.87;;;6.60;99.90;;;;;;5052722;28;20221;-59
2022/12/05 09:28:41;;;;;;;38.63;15.87;;;6.60;99.90;;;;;;5053123;28;20189;-59
2022/12/05 09:31:08;;;;;;;32.00;15.57;;;6.60;99.90;;;;;;5053033;28;20173;-60
2022/12/05 09:33:36;;;;;;;29.60;15.27;;;7.10;99.90;;;;;;5042261;28;20263;-59
2022/12/05 09:36:07;;;;;;;35.50;16.67;;;6.90;99.90;;;;;;5032867;28;20193;-59
2022/12/05 09:38:33;;;;;;;31.33;16.07;;;6.60;99.90;;;;;;5040209;28;20642;-59
2022/12/05 09:42:03;;;;;;;28.70;14.67;;;6.70;99.90;;;;;;5052802;28;20173;-59
2022/12/05 09:44:36;;;;;;;28.50;15.13;;;6.90;99.90;;;;;;5052196;28;20817;-59
2022/12/05 09:47:27;;;;;;;32.77;16.23;;;6.90;99.90;;;;;;5052663;28;20229;-59
2022/12/05 09:49:57;;;;;;;34.20;15.00;;;7.00;99.90;;;;;;5040382;28;20641;-60
2022/12/05 09:52:33;;;;;;;30.60;15.20;;;7.00;99.90;;;;;;5048283;28;20185;-59
2022/12/05 09:55:11;;;;;;;32.13;16.20;;;7.20;99.90;;;;;;5052443;28;20185;-58
2022/12/05 09:57:47;;;;;;;30.90;16.03;;;7.30;99.90;;;;;;5050395;28;20215;-59
2022/12/05 10:00:13;;;;;;;29.77;15.00;;;7.30;99.90;;;;;;5052517;28;20172;-59
2022/12/05 10:03:01;;;;;;;30.00;14.97;;;7.30;99.90;;;;;;5038152;28;20178;-59
2022/12/05 10:05:35;;;;;;;35.53;15.13;;;7.30;99.90;;;;;;5032414;28;20239;-59
2022/12/05 10:08:22;;;;;;;29.43;14.10;;;7.30;99.90;;;;;;5043685;28;20176;-57
2022/12/05 10:11:21;;;;;;;28.60;14.53;;;7.40;99.90;;;;;;5052041;28;20169;-58
2022/12/05 10:14:20;;;;;;;25.70;14.17;;;7.60;99.90;;;;;;5047041;28;20217;-58
2022/12/05 10:17:01;;;;;;;28.57;14.00;;;7.40;99.90;;;;;;5042280;28;20174;-58
2022/12/05 10:19:44;;;;;;;28.67;15.03;;;7.30;99.90;;;;;;5040295;28;20698;-58
2022/12/05 10:22:17;;;;;;;27.00;14.67;;;7.50;99.90;;;;;;5032039;28;20182;-58
2022/12/05 10:24:54;;;;;;;26.37;13.10;;;7.40;99.90;;;;;;5041303;28;20173;-57
2022/12/05 10:27:28;;;;;;;28.33;14.33;;;7.60;99.90;;;;;;5052008;28;20248;-57
2022/12/05 10:30:02;;;;;;;30.43;14.37;;;7.40;99.90;;;;;;5044204;28;20165;-58
2022/12/05 10:32:34;;;;;;;33.70;15.17;;;7.70;99.90;;;;;;5033607;28;20221;-57
2022/12/05 10:35:13;;;;;;;29.60;14.27;;;8.30;99.90;;;;;;5043152;28;20189;-57
2022/12/05 10:37:43;;;;;;;30.20;13.87;;;8.10;99.90;;;;;;5031808;28;20182;-57
2022/12/05 10:40:12;;;;;;;33.13;14.33;;;8.40;99.90;;;;;;5040916;28;20531;-57
2022/12/05 10:42:38;;;;;;;30.33;13.80;;;7.20;99.90;;;;;;5038627;28;20174;-57
2022/12/05 10:45:07;;;;;;;24.83;14.23;;;7.60;99.90;;;;;;5033235;28;20212;-57
2022/12/05 10:47:33;;;;;;;24.93;14.33;;;7.60;99.90;;;;;;5051429;28;20185;-60
2022/12/05 10:50:06;;;;;;;28.30;14.53;;;7.60;99.90;;;;;;5042942;28;20185;-57
2022/12/05 10:52:33;;;;;;;27.00;14.43;;;7.70;99.90;;;;;;5051443;28;20259;-58
2022/12/05 10:55:05;;;;;;;28.17;14.07;;;7.90;99.90;;;;;;5033460;28;20307;-57
2022/12/05 10:57:31;;;;;;;36.03;14.20;;;7.90;99.90;;;;;;5046480;28;20173;-57
2022/12/05 10:59:57;;;;;;;27.07;14.10;;;9.40;99.90;;;;;;5050112;28;20667;-58
2022/12/05 11:02:26;;;;;;;28.23;13.60;;;7.90;99.90;;;;;;5039839;28;20224;-57
2022/12/05 11:04:53;;;;;;;28.93;13.37;;;7.50;99.90;;;;;;5051281;28;20173;-56
2022/12/05 11:07:34;;;;;;;25.43;13.17;;;8.00;99.90;;;;;;5050473;28;20181;-56
2022/12/05 11:10:03;;;;;;;20.80;12.27;;;7.90;99.90;;;;;;5051310;28;20189;-56
2022/12/05 11:12:31;;;;;;;24.27;13.67;;;7.90;99.90;;;;;;5050355;28;20185;-56
2022/12/05 11:15:23;;;;;;;26.53;13.17;;;8.10;99.90;;;;;;5051217;28;20176;-56
2022/12/05 11:17:50;;;;;;;22.77;12.33;;;8.20;99.90;;;;;;5039011;28;20195;-56
2022/12/05 11:20:19;;;;;;;22.30;12.40;;;8.20;99.90;;;;;;5050314;28;20200;-56
2022/12/05 11:22:50;;;;;;;30.03;13.53;;;8.40;99.90;;;;;;5048405;28;20201;-56
2022/12/05 11:25:29;;;;;;;27.23;13.20;;;8.80;99.90;;;;;;5049445;28;20205;-57
2022/12/05 11:27:57;;;;;;;22.53;12.33;;;8.40;99.90;;;;;;5050497;28;20181;-56
2022/12/05 11:30:26;;;;;;;20.33;12.47;;;8.80;99.90;;;;;;5050580;28;20235;-56
2022/12/05 11:33:17;;;;;;;21.57;11.27;;;8.70;99.90;;;;;;5050239;28;20372;-56
2022/12/05 11:35:44;;;;;;;18.73;11.83;;;8.70;99.90;;;;;;5045261;28;20173;-56
2022/12/05 11:38:11;;;;;;;18.50;11.73;;;8.90;99.90;;;;;;5050638;28;20207;-56
2022/12/05 11:41:00;;;;;;;19.10;10.80;;;9.30;99.90;;;;;;5043472;28;20197;-55
2022/12/05 11:43:56;;;;;;;18.40;11.00;;;9.20;99.90;;;;;;5048669;28;20271;-56
2022/12/05 11:46:40;;;;;;;22.50;11.33;;;9.50;99.90;;;;;;5047785;28;20217;-56
2022/12/05 11:49:56;;;;;;;22.77;10.90;;;9.50;99.90;;;;;;5050727;28;20633;-56
2022/12/05 11:52:39;;;;;;;22.67;10.93;;;9.40;99.90;;;;;;4996202;28;20229;-56
2022/12/05 11:55:22;;;;;;;20.73;10.67;;;9.40;99.90;;;;;;5050372;28;20191;-56
2022/12/05 11:58:12;;;;;;;15.03;8.77;;;9.70;99.90;;;;;;5050392;28;20186;-56
2022/12/05 12:01:02;;;;;;;18.37;9.47;;;11.10;99.90;;;;;;5050662;28;20620;-56
2022/12/05 12:03:43;;;;;;;15.73;8.90;;;13.70;99.90;;;;;;5049848;28;20227;-56
2022/12/05 12:06:30;;;;;;;13.83;7.80;;;14.30;99.90;;;;;;5050480;28;20209;-59
2022/12/05 12:09:14;;;;;;;15.52;7.22;;;17.20;99.90;;;;;;5045394;28;20182;-54
2022/12/05 12:11:55;;;;;;;12.20;6.43;;;17.70;99.90;;;;;;5030681;28;20209;-54
2022/12/05 12:14:29;;;;;;;10.73;6.22;;;15.80;99.90;;;;;;5030752;28;20185;-54
2022/12/05 12:17:28;;;;;;;10.30;5.80;;;14.90;99.90;;;;;;5030663;28;20170;-54
2022/12/05 12:20:10;;;;;;;12.95;6.15;;;15.20;99.90;;;;;;5010171;28;20228;-55
2022/12/05 12:23:07;;;;;;;10.80;5.93;;;13.00;99.90;;;;;;5030659;28;20166;-55
2022/12/05 12:25:48;;;;;;;11.55;6.18;;;11.70;99.90;;;;;;5032509;28;20197;-54
2022/12/05 12:29:01;;;;;;;7.95;6.00;;;11.80;99.90;;;;;;5034251;28;20640;-54
2022/12/05 12:31:50;;;;;;;12.77;6.70;;;10.60;99.90;;;;;;5021304;28;20268;-56
2022/12/05 12:34:48;;;;;;;12.60;6.30;;;11.50;99.90;;;;;;5032959;28;20186;-56
2022/12/05 12:37:26;;;;;;;10.13;5.87;;;12.90;99.90;;;;;;5029323;28;20248;-56
2022/12/05 12:40:05;;;;;;;10.83;5.73;;;15.00;99.90;;;;;;5033995;28;20182;-54
2022/12/05 12:42:50;;;;;;;7.70;5.30;;;16.30;99.90;;;;;;5034144;28;20296;-53
2022/12/05 12:45:39;;;;;;;7.60;5.05;;;17.60;99.90;;;;;;5033760;28;20714;-54
2022/12/05 12:48:12;;;;;;;9.65;5.03;;;18.10;99.90;;;;;;5033829;28;20174;-54
2022/12/05 12:50:42;;;;;;;8.05;4.90;;;19.20;99.90;;;;;;5033826;28;20166;-54
2022/12/05 12:53:20;;;;;;;9.43;4.72;;;19.90;99.90;;;;;;5033641;28;20292;-55
2022/12/05 12:56:02;;;;;;;7.07;4.88;;;17.70;99.90;;;;;;5033794;28;20269;-55
2022/12/05 12:58:28;;;;;;;6.50;4.30;;;13.40;99.90;;;;;;5033616;28;20178;-54
2022/12/05 13:01:15;;;;;;;11.13;4.43;;;13.40;99.90;;;;;;5033657;28;20178;-54
2022/12/05 13:03:52;;;;;;;8.57;4.65;;;12.40;99.90;;;;;;5034188;28;20221;-54
2022/12/05 13:06:43;;;;;;;10.13;4.80;;;11.20;99.90;;;;;;5049073;28;20212;-54
2022/12/05 13:09:18;;;;;;;12.13;5.40;;;10.90;99.90;;;;;;5042477;28;20182;-55
2022/12/05 13:11:46;;;;;;;8.45;5.30;;;10.30;99.90;;;;;;5053459;28;20263;-55